Time;durP1;ratioP1;P1;durP2;ratioP2;P2;SDS_P1;SDS_P2;PMS_P1;PMS_P2;Temp;Humidity;BMP_temperature;BMP_pressure;BME280_temperature;BME280_humidity;BME280_pressure;Samples;Min_cycle;Max_cycle;Signal;HPM_P1;HPM_P2
2022/10/13 00:00:03;;;;;;;0.90;0.70;;;;;;;;;;5089856;28;20028;-64
2022/10/13 00:02:30;;;;;;;0.70;0.50;;;;;;;;;;5089480;28;20080;-63
2022/10/13 00:04:56;;;;;;;1.63;0.80;;;;;;;;;;5072209;28;20024;-63
2022/10/13 00:07:23;;;;;;;1.80;0.57;;;;;;;;;;5073585;28;20024;-63
2022/10/13 00:09:50;;;;;;;0.97;0.73;;;;;;;;;;5074247;28;20021;-63
2022/10/13 00:12:16;;;;;;;1.70;0.60;;;;;;;;;;5074110;28;20028;-63
2022/10/13 00:14:43;;;;;;;0.60;0.50;;;;;;;;;;5074213;28;20020;-63
2022/10/13 00:17:09;;;;;;;1.43;0.73;;;;;;;;;;5073957;28;20471;-63
2022/10/13 00:19:36;;;;;;;1.73;0.90;;;;;;;;;;5069696;28;20482;-63
2022/10/13 00:22:03;;;;;;;1.23;0.60;;;;;;;;;;5068842;28;20506;-63
2022/10/13 00:24:29;;;;;;;2.70;1.00;;;;;;;;;;5069027;28;20425;-63
2022/10/13 00:26:56;;;;;;;1.87;1.20;;;;;;;;;;5069147;28;20027;-63
2022/10/13 00:29:23;;;;;;;1.03;0.73;;;;;;;;;;5072138;28;20538;-64
2022/10/13 00:31:49;;;;;;;1.90;0.50;;;;;;;;;;5073705;28;20024;-63
2022/10/13 00:34:16;;;;;;;1.10;0.60;;;;;;;;;;5073490;28;20033;-63
2022/10/13 00:36:43;;;;;;;2.20;0.90;;;;;;;;;;5073666;28;20035;-63
2022/10/13 00:39:09;;;;;;;2.03;0.67;;;;;;;;;;5087154;28;20036;-63
2022/10/13 00:41:36;;;;;;;5.17;1.30;;;;;;;;;;5090113;28;20066;-64
2022/10/13 00:44:04;;;;;;;2.13;1.03;;;;;;;;;;5075681;28;20017;-63
2022/10/13 00:46:37;;;;;;;0.70;0.50;;;;;;;;;;5085154;28;20024;-63
2022/10/13 00:49:07;;;;;;;1.93;0.90;;;;;;;;;;5088791;28;20020;-63
2022/10/13 00:51:34;;;;;;;3.53;0.80;;;;;;;;;;5091173;28;20519;-63
2022/10/13 00:54:03;;;;;;;1.43;0.90;;;;;;;;;;5093487;28;20065;-63
2022/10/13 00:56:29;;;;;;;0.97;0.70;;;;;;;;;;5092951;28;20032;-64
2022/10/13 00:58:57;;;;;;;0.87;0.60;;;;;;;;;;5093556;28;20043;-64
2022/10/13 01:01:24;;;;;;;1.17;0.80;;;;;;;;;;5093416;28;20016;-63
2022/10/13 01:03:51;;;;;;;6.07;1.10;;;;;;;;;;5090335;28;20418;-63
2022/10/13 01:06:18;;;;;;;0.90;0.60;;;;;;;;;;5088347;28;20020;-63
2022/10/13 01:08:45;;;;;;;2.17;0.77;;;;;;;;;;5087698;28;20024;-63
2022/10/13 01:11:21;;;;;;;1.50;0.90;;;;;;;;;;5088062;28;20027;-63
2022/10/13 01:14:00;;;;;;;1.43;1.07;;;;;;;;;;5082118;28;20131;-64
2022/10/13 01:16:45;;;;;;;3.00;1.43;;;;;;;;;;5072992;28;20090;-63
2022/10/13 01:19:11;;;;;;;;;;;;;;;;;;5075111;28;20021;-63
2022/10/13 01:21:38;;;;;;;2.87;1.47;;;;;;;;;;5072754;28;19958;-63
2022/10/13 01:24:05;;;;;;;0.80;0.60;;;;;;;;;;5074721;28;20489;-64
2022/10/13 01:26:42;;;;;;;0.77;0.60;;;;;;;;;;5069557;28;20388;-63
2022/10/13 01:29:27;;;;;;;1.43;1.03;;;;;;;;;;5067675;28;20031;-63
2022/10/13 01:31:54;;;;;;;;;;;;;;;;;;5068142;28;20024;-65
2022/10/13 01:34:22;;;;;;;4.40;1.80;;;;;;;;;;5087743;28;19965;-63
2022/10/13 01:37:08;;;;;;;7.07;2.97;;;;;;;;;;5089655;28;20035;-63
2022/10/13 01:39:40;;;;;;;2.87;1.60;;;;;;;;;;5075969;28;20032;-63
2022/10/13 01:42:12;;;;;;;1.63;1.13;;;;;;;;;;5086530;28;20086;-63
2022/10/13 01:44:41;;;;;;;1.03;0.90;;;;;;;;;;5074544;28;20067;-63
2022/10/13 01:47:08;;;;;;;4.33;1.47;;;;;;;;;;5072013;28;20025;-63
2022/10/13 01:49:35;;;;;;;1.57;1.10;;;;;;;;;;5068224;28;20025;-63
2022/10/13 01:52:05;;;;;;;7.00;1.60;;;;;;;;;;5069299;28;20024;-64
2022/10/13 01:54:32;;;;;;;6.23;1.63;;;;;;;;;;5068471;28;20063;-63
2022/10/13 01:56:58;;;;;;;1.53;1.13;;;;;;;;;;5073731;28;20035;-63
2022/10/13 01:59:29;;;;;;;1.57;1.20;;;;;;;;;;5087186;28;20024;-63
2022/10/13 02:02:00;;;;;;;2.43;1.43;;;;;;;;;;5087055;28;20117;-63
2022/10/13 02:04:26;;;;;;;0.50;0.40;;;;;;;;;;5090148;28;20501;-63
2022/10/13 02:06:56;;;;;;;2.47;1.17;;;;;;;;;;5092458;28;20023;-63
2022/10/13 02:09:37;;;;;;;2.63;1.33;;;;;;;;;;5090503;28;20036;-63
2022/10/13 02:12:11;;;;;;;2.13;0.97;;;;;;;;;;5088337;28;20028;-63
2022/10/13 02:14:40;;;;;;;2.93;1.40;;;;;;;;;;5065480;28;20381;-63
2022/10/13 02:17:07;;;;;;;1.60;1.03;;;;;;;;;;5067178;28;20164;-63
2022/10/13 02:19:35;;;;;;;1.10;0.60;;;;;;;;;;5080629;28;20028;-63
2022/10/13 02:22:03;;;;;;;1.17;0.90;;;;;;;;;;5092353;28;20024;-64
2022/10/13 02:24:29;;;;;;;3.17;0.80;;;;;;;;;;5089310;28;20092;-63
2022/10/13 02:26:56;;;;;;;0.80;0.53;;;;;;;;;;5076128;28;20017;-63
2022/10/13 02:29:23;;;;;;;1.27;0.97;;;;;;;;;;5080626;28;20501;-63
2022/10/13 02:31:50;;;;;;;2.07;1.10;;;;;;;;;;5095918;28;20079;-63
2022/10/13 02:34:16;;;;;;;1.30;0.90;;;;;;;;;;5092358;28;20044;-63
2022/10/13 02:36:43;;;;;;;0.90;0.63;;;;;;;;;;5091193;28;20054;-63
2022/10/13 02:39:10;;;;;;;1.17;0.90;;;;;;;;;;5090539;28;20040;-63
2022/10/13 02:41:37;;;;;;;2.10;1.00;;;;;;;;;;5083708;28;20036;-63
2022/10/13 02:44:04;;;;;;;1.30;0.97;;;;;;;;;;5080496;28;20028;-63
2022/10/13 02:46:31;;;;;;;1.77;1.17;;;;;;;;;;5081918;28;20016;-63
2022/10/13 02:48:58;;;;;;;1.57;0.73;;;;;;;;;;5095941;28;20028;-63
2022/10/13 02:51:24;;;;;;;8.10;1.50;;;;;;;;;;5093975;28;20111;-62
2022/10/13 02:53:51;;;;;;;1.47;0.70;;;;;;;;;;5095301;28;20039;-63
2022/10/13 02:56:18;;;;;;;2.57;1.00;;;;;;;;;;5093335;28;20032;-61
2022/10/13 02:58:44;;;;;;;1.17;0.80;;;;;;;;;;5089986;28;20024;-62
2022/10/13 03:01:12;;;;;;;1.00;0.70;;;;;;;;;;5089900;28;20504;-62
2022/10/13 03:03:39;;;;;;;2.73;0.77;;;;;;;;;;5090650;28;20035;-62
2022/10/13 03:06:06;;;;;;;0.50;0.40;;;;;;;;;;5092419;28;20398;-62
2022/10/13 03:08:33;;;;;;;1.30;0.57;;;;;;;;;;5095577;28;20024;-63
2022/10/13 03:11:00;;;;;;;0.97;0.60;;;;;;;;;;5095398;28;20032;-64
2022/10/13 03:13:27;;;;;;;0.53;0.43;;;;;;;;;;5095474;28;20063;-63
2022/10/13 03:15:54;;;;;;;1.07;0.97;;;;;;;;;;5095438;28;20024;-64
2022/10/13 03:18:21;;;;;;;1.23;0.80;;;;;;;;;;5093822;28;20386;-62
2022/10/13 03:20:58;;;;;;;1.50;0.67;;;;;;;;;;5089054;28;20478;-62
2022/10/13 03:23:25;;;;;;;1.80;1.20;;;;;;;;;;5083697;28;20020;-62
2022/10/13 03:25:52;;;;;;;2.83;1.37;;;;;;;;;;5090219;28;20081;-62
2022/10/13 03:28:19;;;;;;;1.83;0.70;;;;;;;;;;5090910;28;20020;-62
2022/10/13 03:30:46;;;;;;;1.20;0.87;;;;;;;;;;5094901;28;20020;-62
2022/10/13 03:33:13;;;;;;;1.73;0.97;;;;;;;;;;5093714;28;20036;-63
2022/10/13 03:35:40;;;;;;;1.80;0.67;;;;;;;;;;5095184;28;20027;-62
2022/10/13 03:38:07;;;;;;;3.77;0.70;;;;;;;;;;5094993;28;20024;-63
2022/10/13 03:40:35;;;;;;;5.73;0.87;;;;;;;;;;5093041;28;20101;-62
2022/10/13 03:43:02;;;;;;;0.53;0.40;;;;;;;;;;5089647;28;20103;-62
2022/10/13 03:45:32;;;;;;;2.03;0.80;;;;;;;;;;5089519;28;20032;-63
2022/10/13 03:47:59;;;;;;;1.80;0.73;;;;;;;;;;5089576;28;20509;-62
2022/10/13 03:50:29;;;;;;;3.20;0.70;;;;;;;;;;5088277;28;20063;-62
2022/10/13 03:52:55;;;;;;;2.07;0.80;;;;;;;;;;5076528;28;20445;-63
2022/10/13 03:55:22;;;;;;;3.67;1.67;;;;;;;;;;5074512;28;20017;-62
2022/10/13 03:57:49;;;;;;;5.63;3.23;;;;;;;;;;5074437;28;20100;-62
2022/10/13 04:00:16;;;;;;;3.27;1.47;;;;;;;;;;5074118;28;20028;-62
2022/10/13 04:02:42;;;;;;;1.93;0.93;;;;;;;;;;5073662;28;20017;-62
2022/10/13 04:05:09;;;;;;;2.00;1.00;;;;;;;;;;5080327;28;20354;-63
2022/10/13 04:07:36;;;;;;;3.77;1.00;;;;;;;;;;5089236;28;20016;-63
2022/10/13 04:10:03;;;;;;;3.60;1.57;;;;;;;;;;5089187;28;20062;-63
2022/10/13 04:12:29;;;;;;;12.40;3.43;;;;;;;;;;5089078;28;20020;-63
2022/10/13 04:14:56;;;;;;;8.87;2.73;;;;;;;;;;5094203;28;20020;-63
2022/10/13 04:17:22;;;;;;;4.60;2.00;;;;;;;;;;5094393;28;20069;-63
2022/10/13 04:19:49;;;;;;;3.60;2.17;;;;;;;;;;5093870;28;20470;-63
2022/10/13 04:22:16;;;;;;;0.80;0.70;;;;;;;;;;5094040;28;20024;-63
2022/10/13 04:24:42;;;;;;;1.77;0.77;;;;;;;;;;5087293;28;20032;-63
2022/10/13 04:27:09;;;;;;;0.90;0.63;;;;;;;;;;5068681;28;20028;-64
2022/10/13 04:29:36;;;;;;;0.97;0.60;;;;;;;;;;5068716;28;20084;-61
2022/10/13 04:32:03;;;;;;;0.77;0.53;;;;;;;;;;5068492;28;20420;-62
2022/10/13 04:34:29;;;;;;;0.43;0.43;;;;;;;;;;5068369;28;20036;-62
2022/10/13 04:36:56;;;;;;;2.33;1.03;;;;;;;;;;5072117;28;20028;-63
2022/10/13 04:39:22;;;;;;;1.23;0.60;;;;;;;;;;5073487;28;20095;-63
2022/10/13 04:41:49;;;;;;;3.40;0.87;;;;;;;;;;5073335;28;20094;-63
2022/10/13 04:44:16;;;;;;;1.30;0.90;;;;;;;;;;5074846;28;20020;-63
2022/10/13 04:46:42;;;;;;;6.63;2.90;;;;;;;;;;5093306;28;20024;-63
2022/10/13 04:49:09;;;;;;;19.63;3.37;;;;;;;;;;5089418;28;20487;-63
2022/10/13 04:51:36;;;;;;;17.13;4.63;;;;;;;;;;5088520;28;20020;-63
2022/10/13 04:54:04;;;;;;;6.37;1.17;;;;;;;;;;5087940;28;20028;-64
2022/10/13 04:56:31;;;;;;;5.00;1.23;;;;;;;;;;5088213;28;20050;-63
2022/10/13 04:58:58;;;;;;;4.37;1.73;;;;;;;;;;5091362;28;20025;-62
2022/10/13 05:01:25;;;;;;;2.47;1.60;;;;;;;;;;5088677;28;20070;-64
2022/10/13 05:03:53;;;;;;;3.43;1.47;;;;;;;;;;5082123;28;20090;-62
2022/10/13 05:06:22;;;;;;;6.23;1.70;;;;;;;;;;5083281;28;20039;-63
2022/10/13 05:08:49;;;;;;;5.63;1.80;;;;;;;;;;5093269;28;20024;-64
2022/10/13 05:11:16;;;;;;;3.57;1.90;;;;;;;;;;5073865;28;20024;-65
2022/10/13 05:13:43;;;;;;;2.27;1.33;;;;;;;;;;5067557;28;20531;-65
2022/10/13 05:16:10;;;;;;;1.73;1.13;;;;;;;;;;5067742;28;20028;-64
2022/10/13 05:18:37;;;;;;;4.70;1.83;;;;;;;;;;5073308;28;20020;-64
2022/10/13 05:21:08;;;;;;;3.57;2.07;;;;;;;;;;5090784;28;20039;-63
2022/10/13 05:23:34;;;;;;;6.47;1.47;;;;;;;;;;5093075;28;20413;-63
2022/10/13 05:26:05;;;;;;;1.70;0.90;;;;;;;;;;5092297;28;20028;-62
2022/10/13 05:28:32;;;;;;;2.53;1.20;;;;;;;;;;5093084;28;20051;-62
2022/10/13 05:31:08;;;;;;;9.83;1.77;;;;;;;;;;5092800;28;20024;-64
2022/10/13 05:33:34;;;;;;;21.17;10.67;;;;;;;;;;5089283;28;20028;-63
2022/10/13 05:36:08;;;;;;;6.57;3.07;;;;;;;;;;5087638;28;20030;-63
2022/10/13 05:38:34;;;;;;;7.50;2.70;;;;;;;;;;5087093;28;20032;-63
2022/10/13 05:41:08;;;;;;;5.63;3.03;;;;;;;;;;5087429;28;20111;-64
2022/10/13 05:43:35;;;;;;;2.50;1.37;;;;;;;;;;5090498;28;20024;-63
2022/10/13 05:46:01;;;;;;;2.73;0.80;;;;;;;;;;5091664;28;20035;-63
2022/10/13 05:48:28;;;;;;;1.23;0.77;;;;;;;;;;5092648;28;20023;-63
2022/10/13 05:50:55;;;;;;;0.27;0.27;;;;;;;;;;5092728;28;20024;-63
2022/10/13 05:53:23;;;;;;;1.40;0.60;;;;;;;;;;5092457;28;20571;-63
2022/10/13 05:55:50;;;;;;;0.80;0.70;;;;;;;;;;5088846;28;20016;-64
2022/10/13 05:58:17;;;;;;;1.37;0.87;;;;;;;;;;5087233;28;20495;-63
2022/10/13 06:00:44;;;;;;;2.53;1.53;;;;;;;;;;5087247;28;20775;-63
2022/10/13 06:03:15;;;;;;;13.80;4.67;;;;;;;;;;5087198;28;20103;-63
2022/10/13 06:05:44;;;;;;;7.57;3.07;;;;;;;;;;5078941;28;20466;-64
2022/10/13 06:08:10;;;;;;;1.30;0.70;;;;;;;;;;5072369;28;20459;-63
2022/10/13 06:10:37;;;;;;;0.83;0.47;;;;;;;;;;5072167;28;20032;-63
2022/10/13 06:13:04;;;;;;;1.50;0.60;;;;;;;;;;5092538;28;20028;-63
2022/10/13 06:15:31;;;;;;;1.13;0.73;;;;;;;;;;5092414;28;20035;-63
2022/10/13 06:17:58;;;;;;;2.57;1.27;;;;;;;;;;5089642;28;20486;-63
2022/10/13 06:20:26;;;;;;;12.73;1.60;;;;;;;;;;5087090;28;20107;-63
2022/10/13 06:22:55;;;;;;;2.10;1.13;;;;;;;;;;5086828;28;20024;-63
2022/10/13 06:25:22;;;;;;;1.93;0.80;;;;;;;;;;5086673;28;20020;-63
2022/10/13 06:27:49;;;;;;;3.60;1.90;;;;;;;;;;5089120;28;20579;-63
2022/10/13 06:30:15;;;;;;;8.47;3.97;;;;;;;;;;5092127;28;20081;-63
2022/10/13 06:32:42;;;;;;;21.93;1.90;;;;;;;;;;5075745;28;20029;-63
2022/10/13 06:35:09;;;;;;;4.57;1.10;;;;;;;;;;5071991;28;20024;-63
2022/10/13 06:37:36;;;;;;;2.33;1.23;;;;;;;;;;5072101;28;20120;-63
2022/10/13 06:40:02;;;;;;;3.67;1.50;;;;;;;;;;5069504;28;20024;-63
2022/10/13 06:42:30;;;;;;;1.40;0.93;;;;;;;;;;5066155;28;20433;-64
2022/10/13 06:44:57;;;;;;;0.90;0.67;;;;;;;;;;5066451;28;20073;-63
2022/10/13 06:47:24;;;;;;;2.10;1.10;;;;;;;;;;5066547;28;20024;-63
2022/10/13 06:49:50;;;;;;;0.70;0.57;;;;;;;;;;5068139;28;20051;-62
2022/10/13 06:52:17;;;;;;;1.63;0.80;;;;;;;;;;5083186;28;20021;-63
2022/10/13 06:54:44;;;;;;;2.00;0.90;;;;;;;;;;5091590;28;20032;-62
2022/10/13 06:57:11;;;;;;;1.50;1.00;;;;;;;;;;5091776;28;20478;-63
2022/10/13 06:59:37;;;;;;;0.80;0.60;;;;;;;;;;5091603;28;20531;-63
2022/10/13 07:02:04;;;;;;;1.67;0.93;;;;;;;;;;5090390;28;20020;-63
2022/10/13 07:04:31;;;;;;;2.03;1.23;;;;;;;;;;5086421;28;20099;-63
2022/10/13 07:06:57;;;;;;;4.37;2.37;;;;;;;;;;5087938;28;20105;-63
2022/10/13 07:09:24;;;;;;;2.10;1.17;;;;;;;;;;5090407;28;20024;-63
2022/10/13 07:11:51;;;;;;;2.30;1.23;;;;;;;;;;5083118;28;20028;-63
2022/10/13 07:14:17;;;;;;;5.60;2.77;;;;;;;;;;5074952;28;20356;-63
2022/10/13 07:16:44;;;;;;;5.83;3.37;;;;;;;;;;5075005;28;20490;-63
2022/10/13 07:19:11;;;;;;;3.33;1.77;;;;;;;;;;5075291;28;20028;-63
2022/10/13 07:21:37;;;;;;;2.07;1.30;;;;;;;;;;5075167;28;20390;-63
2022/10/13 07:24:04;;;;;;;0.90;0.73;;;;;;;;;;5074428;28;20048;-63
2022/10/13 07:26:32;;;;;;;0.40;0.37;;;;;;;;;;5069760;28;20078;-63
2022/10/13 07:28:59;;;;;;;2.13;1.03;;;;;;;;;;5069816;28;20048;-63
2022/10/13 07:31:26;;;;;;;0.67;0.57;;;;;;;;;;5072485;28;20437;-63
2022/10/13 07:33:53;;;;;;;2.73;1.03;;;;;;;;;;5089416;28;20028;-63
2022/10/13 07:36:20;;;;;;;1.90;1.13;;;;;;;;;;5095231;28;20485;-63
2022/10/13 07:38:47;;;;;;;1.80;0.67;;;;;;;;;;5095063;28;20024;-63
2022/10/13 07:41:14;;;;;;;1.00;0.83;;;;;;;;;;5095027;28;20043;-63
2022/10/13 07:43:41;;;;;;;1.30;0.77;;;;;;;;;;5094975;28;20020;-63
2022/10/13 07:46:08;;;;;;;0.33;0.33;;;;;;;;;;5094909;28;20027;-63
2022/10/13 07:48:35;;;;;;;0.83;0.57;;;;;;;;;;5089616;28;20109;-63
2022/10/13 07:51:06;;;;;;;1.70;0.87;;;;;;;;;;5089235;28;20039;-63
2022/10/13 07:53:34;;;;;;;0.83;0.70;;;;;;;;;;5069458;28;20055;-63
2022/10/13 07:56:05;;;;;;;1.30;0.60;;;;;;;;;;5069283;28;20021;-63
2022/10/13 07:58:31;;;;;;;0.70;0.50;;;;;;;;;;5074050;28;20031;-63
2022/10/13 08:00:59;;;;;;;1.23;0.90;;;;;;;;;;5074628;28;20035;-63
2022/10/13 08:03:26;;;;;;;0.90;0.80;;;;;;;;;;5085128;28;20081;-63
2022/10/13 08:05:53;;;;;;;0.80;0.70;;;;;;;;;;5076003;28;20421;-63
2022/10/13 08:08:20;;;;;;;0.20;0.20;;;;;;;;;;5094529;28;20032;-63
2022/10/13 08:10:47;;;;;;;1.60;0.93;;;;;;;;;;5089415;28;20028;-62
2022/10/13 08:13:14;;;;;;;0.40;0.40;;;;;;;;;;5089176;28;20032;-62
2022/10/13 08:15:41;;;;;;;11.87;1.40;;;;;;;;;;5089079;28;20030;-63
2022/10/13 08:18:09;;;;;;;1.60;1.00;;;;;;;;;;5088483;28;20024;-63
2022/10/13 08:20:38;;;;;;;1.13;0.90;;;;;;;;;;5091250;28;20028;-62
2022/10/13 08:23:05;;;;;;;2.87;2.03;;;;;;;;;;5094118;28;20386;-63
2022/10/13 08:25:36;;;;;;;3.13;1.23;;;;;;;;;;5094319;28;20588;-62
2022/10/13 08:28:03;;;;;;;8.20;2.10;;;;;;;;;;5094160;28;20024;-63
2022/10/13 08:30:29;;;;;;;4.67;2.00;;;;;;;;;;5094288;28;20024;-62
2022/10/13 08:32:56;;;;;;;6.57;3.30;;;;;;;;;;5089485;28;20012;-61
2022/10/13 08:35:23;;;;;;;1.43;1.07;;;;;;;;;;5088676;28;20066;-63
2022/10/13 08:37:49;;;;;;;1.00;0.50;;;;;;;;;;5075704;28;20043;-63
2022/10/13 08:40:17;;;;;;;0.57;0.47;;;;;;;;;;5068198;28;20087;-63
2022/10/13 08:42:45;;;;;;;0.40;0.40;;;;;;;;;;5071821;28;20483;-62
2022/10/13 08:45:16;;;;;;;0.93;0.73;;;;;;;;;;5073605;28;20029;-62
2022/10/13 08:47:45;;;;;;;1.17;0.63;;;;;;;;;;5073549;28;20502;-63
2022/10/13 08:50:14;;;;;;;1.03;0.80;;;;;;;;;;5073567;28;20581;-62
2022/10/13 08:52:52;;;;;;;0.80;0.43;;;;;;;;;;5083599;28;20020;-63
2022/10/13 08:55:39;;;;;;;1.60;1.00;;;;;;;;;;5088970;28;20017;-63
2022/10/13 08:58:11;;;;;;;2.43;1.53;;;;;;;;;;5088215;28;20028;-63
2022/10/13 09:00:37;;;;;;;2.00;1.13;;;;;;;;;;5087849;28;20028;-62
2022/10/13 09:03:16;;;;;;;1.20;0.73;;;;;;;;;;5088192;28;20024;-63
2022/10/13 09:05:46;;;;;;;1.13;0.90;;;;;;;;;;5093175;28;20058;-62
2022/10/13 09:08:17;;;;;;;0.97;0.50;;;;;;;;;;5093328;28;20026;-62
2022/10/13 09:10:48;;;;;;;12.57;0.80;;;;;;;;;;5093432;28;20024;-63
2022/10/13 09:13:15;;;;;;;0.73;0.50;;;;;;;;;;5078677;28;20498;-63
2022/10/13 09:15:45;;;;;;;2.37;1.00;;;;;;;;;;5072993;28;20501;-62
2022/10/13 09:18:12;;;;;;;2.50;0.80;;;;;;;;;;5067502;28;20035;-63
2022/10/13 09:20:40;;;;;;;1.07;0.70;;;;;;;;;;5067725;28;20044;-62
2022/10/13 09:23:16;;;;;;;0.80;0.47;;;;;;;;;;5067549;28;20498;-62
2022/10/13 09:25:44;;;;;;;0.90;0.67;;;;;;;;;;5067133;28;20024;-62
2022/10/13 09:28:16;;;;;;;1.90;1.13;;;;;;;;;;5072810;28;20029;-62
2022/10/13 09:30:45;;;;;;;2.93;0.97;;;;;;;;;;5071707;28;20475;-63
2022/10/13 09:33:12;;;;;;;3.57;0.80;;;;;;;;;;5085231;28;20064;-63
2022/10/13 09:35:40;;;;;;;1.23;0.90;;;;;;;;;;5092940;28;20024;-63
2022/10/13 09:38:13;;;;;;;1.33;0.60;;;;;;;;;;5092636;28;20016;-62
2022/10/13 09:40:40;;;;;;;0.47;0.40;;;;;;;;;;5087423;28;20028;-62
2022/10/13 09:43:20;;;;;;;0.70;0.40;;;;;;;;;;5087533;28;20399;-63
2022/10/13 09:45:47;;;;;;;2.33;0.87;;;;;;;;;;5087535;28;20031;-62
2022/10/13 09:48:18;;;;;;;0.40;0.30;;;;;;;;;;5087329;28;20024;-62
2022/10/13 09:50:49;;;;;;;0.23;0.20;;;;;;;;;;5092676;28;20016;-61
2022/10/13 09:53:16;;;;;;;0.40;0.40;;;;;;;;;;5092834;28;20035;-62
2022/10/13 09:55:45;;;;;;;0.53;0.30;;;;;;;;;;5078740;28;20025;-62
2022/10/13 09:58:15;;;;;;;0.33;0.20;;;;;;;;;;5072507;28;20024;-62
2022/10/13 10:00:42;;;;;;;0.40;0.40;;;;;;;;;;5071750;28;20020;-62
2022/10/13 10:03:27;;;;;;;0.73;0.60;;;;;;;;;;5066869;28;20032;-62
2022/10/13 10:05:57;;;;;;;2.60;0.80;;;;;;;;;;5066998;28;20050;-62
2022/10/13 10:08:27;;;;;;;2.13;0.40;;;;;;;;;;5067069;28;20032;-62
2022/10/13 10:10:54;;;;;;;0.10;0.10;;;;;;;;;;5070901;28;20459;-62
2022/10/13 10:13:23;;;;;;;1.03;0.50;;;;;;;;;;5092231;28;20502;-62
2022/10/13 10:16:19;;;;;;;1.17;0.30;;;;;;;;;;5092210;28;20020;-62
2022/10/13 10:18:45;;;;;;;;;;;;;;;;;;5071649;28;20036;-62
2022/10/13 10:21:20;;;;;;;0.13;0.13;;;;;;;;;;5092372;28;19911;-62
2022/10/13 10:23:50;;;;;;;0.53;0.47;;;;;;;;;;5072093;28;20375;-62
2022/10/13 10:26:16;;;;;;;0.23;0.20;;;;;;;;;;5086870;28;20028;-62
2022/10/13 10:28:58;;;;;;;0.33;0.33;;;;;;;;;;5086900;28;20067;-62
2022/10/13 10:31:33;;;;;;;0.17;0.10;;;;;;;;;;5069532;28;20059;-62
2022/10/13 10:34:06;;;;;;;0.40;0.40;;;;;;;;;;5069122;28;20033;-61
2022/10/13 10:36:42;;;;;;;2.10;0.97;;;;;;;;;;5072025;28;20036;-62
2022/10/13 10:39:29;;;;;;;0.93;0.70;;;;;;;;;;5071855;28;20021;-62
2022/10/13 10:42:02;;;;;;;2.37;0.60;;;;;;;;;;5073181;28;20036;-62
2022/10/13 10:44:43;;;;;;;0.77;0.77;;;;;;;;;;5075681;28;20120;-61
2022/10/13 10:47:29;;;;;;;2.23;0.90;;;;;;;;;;5071120;28;20029;-61
2022/10/13 10:50:06;;;;;;;3.13;1.27;;;;;;;;;;5073803;28;20028;-62
2022/10/13 10:52:51;;;;;;;1.53;0.77;;;;;;;;;;5070532;28;20032;-62
2022/10/13 10:55:28;;;;;;;2.58;1.15;;;;;;;;;;5070280;28;20032;-62
2022/10/13 10:58:08;;;;;;;0.90;0.67;;;;;;;;;;5075766;28;20024;-62
2022/10/13 11:00:39;;;;;;;1.60;0.50;;;;;;;;;;5075707;28;20043;-62
2022/10/13 11:03:22;;;;;;;0.60;0.40;;;;;;;;;;5075590;28;20028;-62
2022/10/13 11:05:57;;;;;;;0.60;0.40;;;;;;;;;;5075664;28;20044;-61
2022/10/13 11:08:29;;;;;;;1.23;0.53;;;;;;;;;;5072775;28;20043;-62
2022/10/13 11:11:21;;;;;;;1.50;0.60;;;;;;;;;;5075513;28;20085;-61
2022/10/13 11:13:59;;;;;;;0.60;0.50;;;;;;;;;;5085561;28;20036;-62
2022/10/13 11:16:31;;;;;;;1.10;0.40;;;;;;;;;;5090032;28;20020;-62
2022/10/13 11:19:08;;;;;;;0.30;0.30;;;;;;;;;;5093142;28;20362;-62
2022/10/13 11:21:53;;;;;;;2.20;0.70;;;;;;;;;;5095524;28;20374;-62
2022/10/13 11:24:38;;;;;;;1.85;0.55;;;;;;;;;;5095100;28;20028;-63
2022/10/13 11:27:09;;;;;;;0.43;0.38;;;;;;;;;;5095432;28;20028;-61
2022/10/13 11:32:40;;;;;;;0.73;0.57;;;;;;;;;;5089907;28;20059;-62
2022/10/13 11:35:09;;;;;;;1.08;0.77;;;;;;;;;;5069514;28;20155;-62
2022/10/13 11:37:54;;;;;;;0.33;0.33;;;;;;;;;;5069745;28;20031;-62
2022/10/13 11:40:24;;;;;;;1.10;0.65;;;;;;;;;;5070190;28;20410;-62
2022/10/13 11:42:54;;;;;;;0.30;0.30;;;;;;;;;;5075164;28;20037;-61
2022/10/13 11:45:27;;;;;;;1.23;0.33;;;;;;;;;;5074995;28;20024;-62
2022/10/13 11:47:57;;;;;;;1.70;0.63;;;;;;;;;;5074584;28;20425;-62
2022/10/13 11:50:52;;;;;;;0.83;0.63;;;;;;;;;;5074721;28;20025;-61
2022/10/13 11:53:32;;;;;;;0.52;0.30;;;;;;;;;;5071092;28;20043;-61
2022/10/13 11:56:03;;;;;;;3.03;0.80;;;;;;;;;;5081827;28;20019;-62
2022/10/13 11:58:31;;;;;;;0.57;0.43;;;;;;;;;;5088997;28;20093;-62
2022/10/13 12:01:00;;;;;;;0.10;0.10;;;;;;;;;;5089546;28;20020;-61
2022/10/13 12:03:28;;;;;;;1.70;0.30;;;;;;;;;;5091691;28;20114;-61
2022/10/13 12:05:57;;;;;;;2.87;0.50;;;;;;;;;;5094653;28;20048;-61
2022/10/13 12:08:25;;;;;;;0.50;0.40;;;;;;;;;;5094601;28;20051;-62
2022/10/13 12:10:56;;;;;;;0.40;0.30;;;;;;;;;;5094432;28;20471;-61
2022/10/13 12:13:32;;;;;;;0.67;0.30;;;;;;;;;;5094089;28;20402;-62
2022/10/13 12:16:01;;;;;;;0.97;0.77;;;;;;;;;;5091262;28;20482;-61
2022/10/13 12:18:38;;;;;;;0.53;0.33;;;;;;;;;;5073231;28;20020;-61
2022/10/13 12:21:12;;;;;;;0.80;0.37;;;;;;;;;;5077603;28;20046;-62
2022/10/13 12:23:39;;;;;;;0.20;0.20;;;;;;;;;;5088642;28;20099;-62
2022/10/13 12:26:06;;;;;;;0.17;0.17;;;;;;;;;;5091976;28;20335;-62
2022/10/13 12:28:54;;;;;;;0.60;0.40;;;;;;;;;;5094413;28;20526;-62
2022/10/13 12:31:25;;;;;;;0.47;0.30;;;;;;;;;;5093697;28;20417;-61
2022/10/13 12:33:56;;;;;;;2.60;0.90;;;;;;;;;;5093565;28;20032;-61
2022/10/13 12:36:26;;;;;;;0.93;0.77;;;;;;;;;;5094086;28;20024;-61
2022/10/13 12:38:54;;;;;;;0.93;0.70;;;;;;;;;;5089446;28;20081;-61
2022/10/13 12:41:25;;;;;;;0.33;0.30;;;;;;;;;;5078524;28;20020;-62
2022/10/13 12:43:52;;;;;;;0.70;0.50;;;;;;;;;;5068416;28;20554;-62
2022/10/13 12:46:37;;;;;;;0.40;0.40;;;;;;;;;;5069176;28;20025;-61
2022/10/13 12:49:04;;;;;;;1.30;0.77;;;;;;;;;;5075602;28;20089;-61
2022/10/13 12:51:32;;;;;;;0.73;0.40;;;;;;;;;;5073548;28;20021;-61
2022/10/13 12:53:59;;;;;;;1.57;0.93;;;;;;;;;;5073499;28;20154;-61
2022/10/13 12:56:30;;;;;;;3.23;1.23;;;;;;;;;;5073247;28;20024;-61
2022/10/13 12:58:57;;;;;;;2.33;1.33;;;;;;;;;;5073108;28;20024;-61
2022/10/13 13:01:29;;;;;;;2.47;1.47;;;;;;;;;;5068357;28;20028;-62
2022/10/13 13:03:57;;;;;;;6.53;1.70;;;;;;;;;;5067965;28;20465;-61
2022/10/13 13:06:28;;;;;;;1.93;1.07;;;;;;;;;;5068805;28;20360;-62
2022/10/13 13:09:27;;;;;;;1.20;0.60;;;;;;;;;;5067823;28;20031;-61
2022/10/13 13:12:04;;;;;;;1.27;0.90;;;;;;;;;;5028931;28;20100;-62
2022/10/13 13:14:41;;;;;;;6.73;1.37;;;;;;;;;;5073061;28;20047;-61
2022/10/13 13:17:21;;;;;;;3.47;1.53;;;;;;;;;;5072948;28;20063;-62
2022/10/13 13:19:49;;;;;;;2.07;1.27;;;;;;;;;;5073050;28;20032;-62
2022/10/13 13:22:16;;;;;;;2.27;1.10;;;;;;;;;;5071509;28;20025;-61
2022/10/13 13:24:43;;;;;;;3.20;1.57;;;;;;;;;;5067481;28;20023;-62
2022/10/13 13:27:32;;;;;;;6.47;2.03;;;;;;;;;;5075368;28;20336;-62
2022/10/13 13:29:58;;;;;;;1.50;1.07;;;;;;;;;;5087501;28;20050;-62
2022/10/13 13:32:27;;;;;;;2.53;1.53;;;;;;;;;;5089183;28;20101;-62
2022/10/13 13:34:53;;;;;;;2.97;1.60;;;;;;;;;;5089950;28;20024;-62
2022/10/13 13:37:24;;;;;;;2.20;1.37;;;;;;;;;;5072678;28;20371;-62
2022/10/13 13:39:50;;;;;;;6.87;2.40;;;;;;;;;;5072632;28;20111;-61
2022/10/13 13:42:17;;;;;;;3.17;2.23;;;;;;;;;;5072397;28;20025;-62
2022/10/13 13:44:44;;;;;;;6.90;2.23;;;;;;;;;;5070632;28;20028;-62
2022/10/13 13:47:36;;;;;;;4.00;2.50;;;;;;;;;;5067047;28;20491;-61
2022/10/13 13:50:03;;;;;;;2.90;2.30;;;;;;;;;;5075995;28;20507;-61
2022/10/13 13:52:30;;;;;;;2.80;2.13;;;;;;;;;;5087116;28;20374;-61
2022/10/13 13:54:56;;;;;;;2.73;1.70;;;;;;;;;;5088831;28;20071;-61
2022/10/13 13:57:23;;;;;;;6.20;2.73;;;;;;;;;;5092719;28;20095;-61
2022/10/13 13:59:50;;;;;;;7.33;4.20;;;;;;;;;;5077390;28;20036;-61
2022/10/13 14:02:19;;;;;;;6.33;2.90;;;;;;;;;;5072526;28;20021;-61
2022/10/13 14:04:46;;;;;;;2.90;2.20;;;;;;;;;;5072266;28;20059;-61
2022/10/13 14:07:13;;;;;;;3.20;2.20;;;;;;;;;;5070017;28;20467;-61
2022/10/13 14:09:40;;;;;;;14.17;2.00;;;;;;;;;;5066735;28;20100;-61
2022/10/13 14:12:06;;;;;;;3.93;2.27;;;;;;;;;;5076955;28;20470;-61
2022/10/13 14:14:33;;;;;;;3.03;1.60;;;;;;;;;;5087107;28;20127;-61
2022/10/13 14:17:02;;;;;;;5.10;2.70;;;;;;;;;;5087748;28;20381;-61
2022/10/13 14:19:29;;;;;;;2.63;1.70;;;;;;;;;;5092409;28;20024;-61
2022/10/13 14:21:56;;;;;;;3.67;2.13;;;;;;;;;;5092141;28;20024;-61
2022/10/13 14:24:22;;;;;;;8.47;2.23;;;;;;;;;;5092213;28;20421;-61
2022/10/13 14:26:49;;;;;;;5.37;1.70;;;;;;;;;;5086117;28;20403;-62
2022/10/13 14:29:16;;;;;;;3.30;2.00;;;;;;;;;;5072924;28;20115;-61
2022/10/13 14:31:42;;;;;;;1.67;1.27;;;;;;;;;;5070853;28;20482;-61
2022/10/13 14:34:09;;;;;;;1.27;0.93;;;;;;;;;;5086728;28;20028;-61
2022/10/13 14:36:36;;;;;;;2.73;1.37;;;;;;;;;;5086899;28;20048;-62
2022/10/13 14:39:02;;;;;;;3.27;1.80;;;;;;;;;;5087331;28;20047;-62
2022/10/13 14:41:29;;;;;;;2.10;1.03;;;;;;;;;;5092103;28;20153;-62
2022/10/13 14:43:56;;;;;;;3.23;1.80;;;;;;;;;;5091908;28;20035;-62
2022/10/13 14:46:23;;;;;;;1.27;0.70;;;;;;;;;;5092263;28;20024;-62
2022/10/13 14:48:50;;;;;;;1.50;0.87;;;;;;;;;;5091787;28;20040;-62
2022/10/13 14:51:17;;;;;;;3.03;1.47;;;;;;;;;;5091043;28;20021;-62
2022/10/13 14:53:45;;;;;;;2.37;1.40;;;;;;;;;;5085841;28;20447;-63
2022/10/13 14:56:16;;;;;;;1.37;1.00;;;;;;;;;;5086631;28;20111;-63
2022/10/13 14:58:43;;;;;;;3.17;1.43;;;;;;;;;;5072201;28;20029;-62